createdAt,value
2019-06-10T00:01:40.874Z,101215.27
2019-06-10T00:04:12.734Z,101215.33
2019-06-10T00:06:46.036Z,101215.30
2019-06-10T00:09:20.923Z,101214.05
2019-06-10T00:11:52.086Z,101207.47
2019-06-10T00:14:24.173Z,101210.27
2019-06-10T00:16:56.799Z,101211.12
2019-06-10T00:19:31.566Z,101206.73
2019-06-10T00:22:04.099Z,101204.77
2019-06-10T00:24:36.603Z,101201.50
2019-06-10T00:27:11.462Z,101190.26
2019-06-10T00:29:42.508Z,101194.55
2019-06-10T00:32:14.626Z,101197.00
2019-06-10T00:34:46.707Z,101205.59
2019-06-10T00:37:21.183Z,101204.06
2019-06-10T00:39:52.445Z,101202.76
2019-06-10T00:42:24.586Z,101195.41
2019-06-10T00:44:56.614Z,101193.05
2019-06-10T00:47:30.656Z,101185.02
2019-06-10T00:50:03.970Z,101191.50
2019-06-10T00:52:36.401Z,101198.30
2019-06-10T00:55:09.992Z,101199.79
2019-06-10T00:57:42.411Z,101199.27
2019-06-10T01:00:24.912Z,101198.23
2019-06-10T01:02:48.600Z,101194.51
2019-06-10T01:05:20.845Z,101197.89
2019-06-10T01:07:53.048Z,101194.55
2019-06-10T01:10:25.172Z,101196.67
2019-06-10T01:12:57.367Z,101196.46
2019-06-10T01:15:31.141Z,101192.42
2019-06-10T01:18:03.627Z,101199.97
2019-06-10T01:20:35.874Z,101199.46
2019-06-10T01:23:09.781Z,101202.59
2019-06-10T01:25:42.617Z,101204.23
2019-06-10T01:28:16.875Z,101200.98
2019-06-10T01:30:48.855Z,101202.75
2019-06-10T01:33:21.421Z,101202.55
2019-06-10T01:35:53.532Z,101202.70
2019-06-10T01:38:25.764Z,101194.94
2019-06-10T01:40:57.932Z,101201.52
2019-06-10T01:43:32.045Z,101203.47
2019-06-10T01:46:03.943Z,101203.30
2019-06-10T01:48:43.953Z,101203.36
2019-06-10T01:51:13.122Z,101211.42
2019-06-10T01:53:45.606Z,101210.71
2019-06-10T01:56:18.526Z,101208.23
2019-06-10T01:58:51.693Z,101209.06
2019-06-10T02:01:37.796Z,101206.61
2019-06-10T02:04:13.081Z,101203.36
2019-06-10T02:06:44.155Z,101206.64
2019-06-10T02:09:17.242Z,101205.50
2019-06-10T02:11:51.390Z,101207.80
2019-06-10T02:14:24.348Z,101208.61
2019-06-10T02:16:56.622Z,101209.62
2019-06-10T02:19:30.927Z,101215.33
2019-06-10T02:22:02.965Z,101218.83
2019-06-10T02:24:35.183Z,101223.13
2019-06-10T02:27:07.245Z,101216.08
2019-06-10T02:29:41.224Z,101215.02
2019-06-10T02:32:18.598Z,101217.09
2019-06-10T02:35:02.143Z,101211.25
2019-06-10T02:37:25.564Z,101218.95
2019-06-10T02:39:55.154Z,101223.36
2019-06-10T02:42:30.952Z,101207.14
2019-06-10T02:45:04.005Z,101210.00
2019-06-10T02:47:38.000Z,101212.42
2019-06-10T02:50:16.229Z,101217.28
2019-06-10T02:52:44.748Z,101220.30
2019-06-10T02:55:18.303Z,101230.02
2019-06-10T02:57:53.109Z,101223.13
2019-06-10T03:00:36.958Z,101229.66
2019-06-10T03:02:58.294Z,101237.91
2019-06-10T03:05:40.079Z,101234.38
2019-06-10T03:08:04.196Z,101232.25
2019-06-10T03:10:37.345Z,101237.36
2019-06-10T03:13:09.570Z,101236.00
2019-06-10T03:15:43.359Z,101238.59
2019-06-10T03:18:15.776Z,101233.41
2019-06-10T03:20:47.863Z,101230.46
2019-06-10T03:23:22.709Z,101235.27
2019-06-10T03:26:04.171Z,101238.33
2019-06-10T03:28:36.480Z,101236.61
2019-06-10T03:31:08.718Z,101236.59
2019-06-10T03:33:46.363Z,101237.44
2019-06-10T03:36:14.639Z,101240.39
2019-06-10T03:38:46.826Z,101234.72
2019-06-10T03:41:18.947Z,101230.80
2019-06-10T03:43:53.098Z,101229.45
2019-06-10T03:46:26.660Z,101235.83
2019-06-10T03:48:58.694Z,101238.53
2019-06-10T03:51:33.167Z,101229.42
2019-06-10T03:54:04.739Z,101229.39
2019-06-10T03:56:36.982Z,101227.22
2019-06-10T03:59:09.129Z,101233.84
2019-06-10T04:01:42.603Z,101233.52
2019-06-10T04:04:15.016Z,101241.70
2019-06-10T04:06:47.157Z,101244.94
2019-06-10T04:09:19.576Z,101235.94
2019-06-10T04:11:53.261Z,101246.75
2019-06-10T04:14:26.754Z,101245.88
2019-06-10T04:16:59.211Z,101243.58
2019-06-10T04:19:32.715Z,101250.77
2019-06-10T04:22:05.015Z,101248.67
2019-06-10T04:24:37.158Z,101240.73
2019-06-10T04:27:09.144Z,101246.29
2019-06-10T04:29:42.296Z,101241.81
2019-06-10T04:32:14.486Z,101245.64
2019-06-10T04:34:46.431Z,101245.74
2019-06-10T04:37:18.529Z,101246.59
2019-06-10T04:39:52.916Z,101242.15
2019-06-10T04:42:25.755Z,101242.42
2019-06-10T04:44:58.056Z,101234.83
2019-06-10T04:47:33.111Z,101242.84
2019-06-10T04:50:20.539Z,101247.55
2019-06-10T04:52:39.198Z,101247.69
2019-06-10T04:55:12.627Z,101244.28
2019-06-10T04:57:44.787Z,101247.82
2019-06-10T05:00:16.937Z,101251.84
2019-06-10T05:02:48.975Z,101255.77
2019-06-10T05:05:24.054Z,101252.70
2019-06-10T05:07:55.650Z,101261.66
2019-06-10T05:10:28.377Z,101244.28
2019-06-10T05:13:03.145Z,101247.06
2019-06-10T05:15:35.264Z,101249.31
2019-06-10T05:18:08.398Z,101251.02
2019-06-10T05:20:54.206Z,101242.02
2019-06-10T05:23:14.225Z,101240.89
2019-06-10T05:25:46.461Z,101247.92
2019-06-10T05:28:19.896Z,101252.34
2019-06-10T05:30:53.186Z,101249.70
2019-06-10T05:33:25.990Z,101246.30
2019-06-10T05:35:59.189Z,101244.69
2019-06-10T05:38:34.955Z,101252.56
2019-06-10T05:41:04.964Z,101257.92
2019-06-10T05:43:37.103Z,101251.44
2019-06-10T05:46:09.226Z,101261.18
2019-06-10T05:48:43.492Z,101263.82
2019-06-10T05:51:15.130Z,101266.80
2019-06-10T05:53:47.126Z,101263.51
2019-06-10T05:56:19.179Z,101265.31
2019-06-10T05:58:52.519Z,101267.92
2019-06-10T06:01:25.665Z,101265.81
2019-06-10T06:03:59.153Z,101257.44
2019-06-10T06:06:33.441Z,101268.00
2019-06-10T06:09:09.333Z,101262.21
2019-06-10T06:11:43.040Z,101260.47
2019-06-10T06:14:15.395Z,101263.75
2019-06-10T06:16:47.522Z,101258.18
2019-06-10T06:19:19.692Z,101260.47
2019-06-10T06:21:53.090Z,101264.40
2019-06-10T06:24:25.644Z,101259.14
2019-06-10T06:26:57.859Z,101260.95
2019-06-10T06:29:31.474Z,101253.42
2019-06-10T06:32:03.876Z,101257.36
2019-06-10T06:34:38.663Z,101261.98
2019-06-10T06:37:09.856Z,101267.06
2019-06-10T06:39:42.915Z,101257.64
2019-06-10T06:42:15.290Z,101260.83
2019-06-10T06:44:47.529Z,101268.19
2019-06-10T06:47:19.797Z,101264.02
2019-06-10T06:49:53.161Z,101264.84
2019-06-10T06:52:55.631Z,101259.23
2019-06-10T06:55:02.322Z,101265.34
2019-06-10T06:57:35.555Z,101255.22
2019-06-10T07:00:34.031Z,101254.17
2019-06-10T07:02:43.614Z,101253.13
2019-06-10T07:05:15.975Z,101262.37
2019-06-10T07:07:48.428Z,101252.42
2019-06-10T07:10:22.831Z,101254.03
2019-06-10T07:12:57.510Z,101252.85
2019-06-10T07:15:39.518Z,101246.05
2019-06-10T07:18:13.015Z,101243.98
2019-06-10T07:20:45.963Z,101237.50
2019-06-10T07:23:18.192Z,101240.11
2019-06-10T07:25:50.324Z,101246.56
2019-06-10T07:28:23.075Z,101241.38
2019-06-10T07:30:55.553Z,101240.82
2019-06-10T07:33:27.747Z,101228.66
2019-06-10T07:35:59.861Z,101234.84
2019-06-10T07:38:33.887Z,101232.00
2019-06-10T07:41:06.050Z,101234.27
2019-06-10T07:43:41.314Z,101230.03
2019-06-10T07:46:13.426Z,101226.98
2019-06-10T07:48:48.137Z,101230.66
2019-06-10T07:51:22.355Z,101222.77
2019-06-10T07:53:53.452Z,101221.03
2019-06-10T07:56:25.573Z,101216.55
2019-06-10T07:58:57.719Z,101213.12
2019-06-10T08:01:29.850Z,101215.04
2019-06-10T08:04:03.085Z,101218.95
2019-06-10T08:06:36.408Z,101215.79
2019-06-10T08:09:09.044Z,101205.88
2019-06-10T08:11:44.924Z,101206.99
2019-06-10T08:14:15.119Z,101209.48
2019-06-10T08:16:48.491Z,101213.13
2019-06-10T08:19:33.840Z,101208.80
2019-06-10T08:21:54.502Z,101210.44
2019-06-10T08:24:26.707Z,101199.34
2019-06-10T08:26:58.913Z,101201.53
2019-06-10T08:29:33.045Z,101198.79
2019-06-10T08:32:05.253Z,101195.38
2019-06-10T08:34:38.017Z,101195.85
2019-06-10T08:37:13.505Z,101183.33
2019-06-10T08:39:45.930Z,101186.78
2019-06-10T08:42:17.933Z,101191.69
2019-06-10T08:44:50.060Z,101188.22
2019-06-10T08:47:22.947Z,101187.82
2019-06-10T08:49:55.165Z,101187.73
2019-06-10T08:52:27.186Z,101183.42
2019-06-10T08:54:59.212Z,101176.89
2019-06-10T08:57:33.457Z,101171.72
2019-06-10T09:00:11.658Z,101174.48
2019-06-10T09:02:41.959Z,101173.75
2019-06-10T09:05:19.433Z,101177.61
2019-06-10T09:07:54.370Z,101178.56
2019-06-10T09:10:25.282Z,101168.36
2019-06-10T09:12:57.265Z,101161.06
2019-06-10T09:15:29.242Z,101175.05
2019-06-10T09:18:02.684Z,101170.13
2019-06-10T09:20:34.905Z,101174.79
2019-06-10T09:23:20.986Z,101159.86
2019-06-10T09:25:45.760Z,101159.78
2019-06-10T09:28:14.478Z,101160.42
2019-06-10T09:30:52.929Z,101156.98
2019-06-10T09:33:22.566Z,101157.34
2019-06-10T09:35:55.047Z,101146.26
2019-06-10T09:38:27.240Z,101143.38
2019-06-10T09:41:04.860Z,101147.45
2019-06-10T09:43:34.235Z,101144.62
2019-06-10T09:46:06.170Z,101148.09
2019-06-10T09:48:38.681Z,101142.98
2019-06-10T09:51:12.460Z,101133.88
2019-06-10T09:53:54.641Z,101134.59
2019-06-10T09:56:18.346Z,101140.04
2019-06-10T09:58:52.751Z,101128.80
2019-06-10T10:01:24.755Z,101124.38
2019-06-10T10:04:00.195Z,101122.23
2019-06-10T10:06:32.678Z,101128.05
2019-06-10T10:09:06.871Z,101128.47
2019-06-10T10:11:39.016Z,101130.09
2019-06-10T10:14:15.789Z,101136.55
2019-06-10T10:16:49.362Z,101117.59
2019-06-10T10:19:18.521Z,101131.98
2019-06-10T10:21:56.599Z,101119.19
2019-06-10T10:24:24.260Z,101112.02
2019-06-10T10:26:58.018Z,101110.98
2019-06-10T10:29:32.705Z,101105.33
2019-06-10T10:32:03.995Z,101103.31
2019-06-10T10:34:36.026Z,101107.44
2019-06-10T10:37:12.217Z,101106.84
2019-06-10T10:39:44.570Z,101095.67
2019-06-10T10:42:17.118Z,101099.11
2019-06-10T10:44:52.065Z,101094.77
2019-06-10T10:47:27.461Z,101087.97
2019-06-10T10:49:57.191Z,101079.98
2019-06-10T10:52:29.337Z,101077.67
2019-06-10T10:55:06.661Z,101084.05
2019-06-10T10:57:35.279Z,101074.67
2019-06-10T11:00:12.279Z,101087.69
2019-06-10T11:02:44.943Z,101073.77
2019-06-10T11:05:35.035Z,101073.81
2019-06-10T11:08:08.310Z,101069.58
2019-06-10T11:10:43.882Z,101067.20
2019-06-10T11:13:14.241Z,101067.83
2019-06-10T11:15:47.339Z,101072.58
2019-06-10T11:18:19.480Z,101064.94
2019-06-10T11:20:51.582Z,101070.07
2019-06-10T11:23:23.646Z,101064.76
2019-06-10T11:25:57.195Z,101061.19
2019-06-10T11:28:29.328Z,101056.90
2019-06-10T11:31:03.300Z,101059.91
2019-06-10T11:33:35.046Z,101060.48
2019-06-10T11:36:07.125Z,101050.98
2019-06-10T11:38:39.126Z,101047.52
2019-06-10T11:41:13.581Z,101047.30
2019-06-10T11:43:46.297Z,101043.66
2019-06-10T11:46:18.437Z,101042.62
2019-06-10T11:48:53.672Z,101036.41
2019-06-10T11:51:24.245Z,101036.56
2019-06-10T11:53:57.650Z,101030.72
2019-06-10T11:56:30.134Z,101027.46
2019-06-10T11:59:08.227Z,101021.30
2019-06-10T12:01:35.908Z,101014.42
2019-06-10T12:04:07.967Z,101014.23
2019-06-10T12:06:42.400Z,101014.55
2019-06-10T12:09:13.993Z,101020.45
2019-06-10T12:11:46.040Z,101009.20
2019-06-10T12:14:17.998Z,101008.23
2019-06-10T12:17:17.589Z,101014.84
2019-06-10T12:19:23.760Z,101013.19
2019-06-10T12:21:59.689Z,101012.48
2019-06-10T12:24:32.839Z,101012.54
2019-06-10T12:27:05.114Z,101004.08
2019-06-10T12:29:37.159Z,101002.91
2019-06-10T12:32:09.268Z,100998.27
2019-06-10T12:34:41.333Z,100996.27
2019-06-10T12:37:15.967Z,100995.95
2019-06-10T12:39:47.483Z,100993.64
2019-06-10T12:42:19.474Z,100990.03
2019-06-10T12:44:53.845Z,100990.35
2019-06-10T12:47:25.246Z,100987.83
2019-06-10T12:49:57.625Z,100990.14
2019-06-10T12:52:32.435Z,100987.05
2019-06-10T12:55:09.231Z,100980.25
2019-06-10T12:57:42.823Z,100975.03
2019-06-10T13:00:20.643Z,100974.83
2019-06-10T13:02:53.019Z,100972.96
2019-06-10T13:05:24.256Z,100974.45
2019-06-10T13:07:59.722Z,100965.99
2019-06-10T13:10:37.824Z,100971.61
2019-06-10T13:13:11.155Z,100975.90
2019-06-10T13:15:43.516Z,100974.82
2019-06-10T13:18:19.533Z,100969.10
2019-06-10T13:20:49.454Z,100967.98
2019-06-10T13:23:29.054Z,100969.37
2019-06-10T13:25:58.704Z,100969.06
2019-06-10T13:28:28.840Z,100964.95
2019-06-10T13:31:04.265Z,100964.23
2019-06-10T13:33:34.715Z,100966.69
2019-06-10T13:36:08.636Z,100961.02
2019-06-10T13:38:42.753Z,100965.54
2019-06-10T13:41:14.511Z,100959.13
2019-06-10T13:43:46.611Z,100955.47
2019-06-10T13:46:18.620Z,100957.22
2019-06-10T13:48:52.271Z,100948.64
2019-06-10T13:51:24.474Z,100957.05
2019-06-10T13:53:56.622Z,100948.86
2019-06-10T13:56:43.169Z,100947.00
2019-06-10T13:59:04.072Z,100946.13
2019-06-10T14:01:36.124Z,100945.85
2019-06-10T14:04:15.910Z,100941.33
2019-06-10T14:06:49.745Z,100936.80
2019-06-10T14:09:16.747Z,100935.78
2019-06-10T14:11:48.877Z,100931.25
2019-06-10T14:14:22.957Z,100927.94
2019-06-10T14:16:54.784Z,100926.23
2019-06-10T14:19:26.808Z,100928.53
2019-06-10T14:21:58.890Z,100926.53
2019-06-10T14:24:33.088Z,100927.81
2019-06-10T14:27:08.746Z,100929.95
2019-06-10T14:29:39.272Z,100931.16
2019-06-10T14:32:13.905Z,100931.80
2019-06-10T14:34:45.187Z,100926.92
2019-06-10T14:37:32.318Z,100917.30
2019-06-10T14:39:52.902Z,100927.31
2019-06-10T14:42:24.984Z,100917.90
2019-06-10T14:44:57.132Z,100914.51
2019-06-10T14:47:29.616Z,100917.26
2019-06-10T14:50:03.260Z,100921.67
2019-06-10T14:52:35.894Z,100925.39
2019-06-10T14:55:09.349Z,100921.22
2019-06-10T14:57:42.555Z,100922.88
2019-06-10T15:00:17.961Z,100920.23
2019-06-10T15:02:48.744Z,100918.63
2019-06-10T15:05:23.079Z,100920.26
2019-06-10T15:07:54.642Z,100923.83
2019-06-10T15:10:26.842Z,100922.63
2019-06-10T15:12:58.853Z,100934.00
2019-06-10T15:15:32.928Z,100931.52
2019-06-10T15:18:04.775Z,100931.02
2019-06-10T15:20:37.208Z,100931.43
2019-06-10T15:23:09.518Z,100930.42
2019-06-10T15:25:50.266Z,100923.02
2019-06-10T15:28:17.629Z,100924.11
2019-06-10T15:30:52.240Z,100924.91
2019-06-10T15:33:24.030Z,100920.48
2019-06-10T15:35:56.138Z,100926.85
2019-06-10T15:38:28.300Z,100925.59
2019-06-10T15:41:00.523Z,100919.16
2019-06-10T15:43:33.201Z,100917.81
2019-06-10T15:46:05.343Z,100915.08
2019-06-10T15:48:37.380Z,100917.75
2019-06-10T15:51:11.028Z,100919.25
2019-06-10T15:53:43.536Z,100922.00
2019-06-10T15:56:29.880Z,100920.20
2019-06-10T15:58:49.453Z,100922.44
2019-06-10T16:01:25.445Z,100920.56
2019-06-10T16:03:55.380Z,100914.04
2019-06-10T16:06:27.485Z,100915.63
2019-06-10T16:08:59.717Z,100915.23
2019-06-10T16:11:33.096Z,100911.64
2019-06-10T16:14:05.960Z,100915.39
2019-06-10T16:16:38.199Z,100916.03
2019-06-10T16:19:12.847Z,100911.16
2019-06-10T16:21:44.381Z,100907.52
2019-06-10T16:24:17.276Z,100910.05
2019-06-10T16:26:52.449Z,100907.35
2019-06-10T16:29:26.764Z,100906.29
2019-06-10T16:31:58.187Z,100898.88
2019-06-10T16:34:32.416Z,100902.08
2019-06-10T16:37:04.219Z,100896.30
2019-06-10T16:39:36.507Z,100897.95
2019-06-10T16:42:08.838Z,100901.59
2019-06-10T16:44:42.322Z,100901.41
2019-06-10T16:47:14.645Z,100910.12
2019-06-10T16:49:46.739Z,100906.94
2019-06-10T16:52:19.571Z,100902.09
2019-06-10T16:54:52.619Z,100905.83
2019-06-10T16:57:25.956Z,100910.20
2019-06-10T16:59:59.045Z,100909.98
2019-06-10T17:02:33.042Z,100912.00
2019-06-10T17:05:06.834Z,100912.97
2019-06-10T17:07:39.040Z,100911.87
2019-06-10T17:10:12.675Z,100909.04
2019-06-10T17:12:46.654Z,100917.43
2019-06-10T17:15:19.069Z,100925.42
2019-06-10T17:17:52.155Z,100919.66
2019-06-10T17:20:26.289Z,100923.44
2019-06-10T17:23:03.105Z,100920.16
2019-06-10T17:25:34.714Z,100922.97
2019-06-10T17:28:18.026Z,100917.98
2019-06-10T17:30:42.630Z,100924.77
2019-06-10T17:33:15.451Z,100928.53
2019-06-10T17:35:47.518Z,100926.02
2019-06-10T17:38:20.531Z,100924.26
2019-06-10T17:40:52.791Z,100927.38
2019-06-10T17:43:25.247Z,100931.34
2019-06-10T17:45:58.510Z,100931.34
2019-06-10T17:48:33.455Z,100935.34
2019-06-10T17:51:06.071Z,100934.79
2019-06-10T17:53:38.796Z,100939.61
2019-06-10T17:56:13.176Z,100942.38
2019-06-10T17:58:53.847Z,100944.64
2019-06-10T18:01:18.429Z,100949.46
2019-06-10T18:03:52.893Z,100941.61
2019-06-10T18:06:25.900Z,100944.76
2019-06-10T18:08:58.252Z,100952.94
2019-06-10T18:11:32.827Z,100952.05
2019-06-10T18:14:04.755Z,100956.27
2019-06-10T18:16:36.976Z,100956.34
2019-06-10T18:19:09.146Z,100957.52
2019-06-10T18:21:41.357Z,100955.00
2019-06-10T18:24:13.594Z,100955.94
2019-06-10T18:26:45.893Z,100962.13
2019-06-10T18:29:18.018Z,100964.44
2019-06-10T18:31:50.209Z,100964.78
2019-06-10T18:34:22.768Z,100961.67
2019-06-10T18:36:54.875Z,100963.95
2019-06-10T18:39:27.329Z,100966.16
2019-06-10T18:41:59.623Z,100969.23
2019-06-10T18:44:33.707Z,100960.22
2019-06-10T18:47:05.722Z,100962.77
2019-06-10T18:49:37.870Z,100973.75
2019-06-10T18:52:12.527Z,100972.34
2019-06-10T18:54:43.893Z,100973.25
2019-06-10T18:57:16.042Z,100969.68
2019-06-10T18:59:48.243Z,100966.91
2019-06-10T19:02:22.510Z,100971.11
2019-06-10T19:04:54.760Z,100979.02
2019-06-10T19:07:28.729Z,100961.59
2019-06-10T19:10:02.372Z,100977.08
2019-06-10T19:12:36.620Z,100976.86
2019-06-10T19:15:08.918Z,100985.00
2019-06-10T19:17:44.281Z,100973.23
2019-06-10T19:20:15.433Z,100978.80
2019-06-10T19:22:47.605Z,100984.16
2019-06-10T19:28:07.340Z,100978.20
2019-06-10T19:30:41.468Z,100984.70
2019-06-10T19:33:13.444Z,100977.11
2019-06-10T19:35:45.611Z,100978.51
2019-06-10T19:38:17.848Z,100977.70
2019-06-10T19:40:52.153Z,100972.36
2019-06-10T19:43:23.924Z,100966.47
2019-06-10T19:45:57.806Z,100973.19
2019-06-10T19:48:33.068Z,100966.16
2019-06-10T19:51:05.184Z,100974.20
2019-06-10T19:53:37.365Z,100970.52
2019-06-10T19:56:09.443Z,100969.64
2019-06-10T19:58:43.416Z,100973.52
2019-06-10T20:01:16.418Z,100976.84
2019-06-10T20:03:48.587Z,100969.81
2019-06-10T20:06:20.690Z,100969.27
2019-06-10T20:08:52.828Z,100973.47
2019-06-10T20:11:25.034Z,100973.75
2019-06-10T20:13:57.132Z,100971.09
2019-06-10T20:16:29.273Z,100975.30
2019-06-10T20:19:03.023Z,100972.63
2019-06-10T20:21:36.027Z,100973.34
2019-06-10T20:24:08.198Z,100973.92
2019-06-10T20:26:43.691Z,100965.28
2019-06-10T20:29:15.457Z,100961.63
2019-06-10T20:31:48.900Z,100971.70
2019-06-10T20:34:24.149Z,100968.27
2019-06-10T20:36:55.108Z,100958.40
2019-06-10T20:39:29.382Z,100961.78
2019-06-10T20:42:02.800Z,100966.05
2019-06-10T20:44:35.228Z,100956.36
2019-06-10T20:47:07.438Z,100950.23
2019-06-10T20:49:39.767Z,100954.77
2019-06-10T20:52:14.737Z,100947.19
2019-06-10T20:54:47.829Z,100949.83
2019-06-10T20:57:19.560Z,100955.33
2019-06-10T20:59:51.660Z,100961.54
2019-06-10T21:02:24.812Z,100956.86
2019-06-10T21:04:58.041Z,100952.16
2019-06-10T21:07:32.384Z,100953.86
2019-06-10T21:10:06.295Z,100954.14
2019-06-10T21:12:39.670Z,100956.09
2019-06-10T21:15:12.579Z,100954.16
2019-06-10T21:17:46.346Z,100949.14
2019-06-10T21:20:18.728Z,100945.10
2019-06-10T21:22:53.074Z,100945.08
2019-06-10T21:25:24.570Z,100948.91
2019-06-10T21:27:56.669Z,100958.13
2019-06-10T21:30:40.559Z,100955.97
2019-06-10T21:33:03.580Z,100961.33
2019-06-10T21:35:36.085Z,100963.58
2019-06-10T21:38:08.262Z,100956.88
2019-06-10T21:40:42.505Z,100963.30
2019-06-10T21:43:14.431Z,100970.83
2019-06-10T21:45:51.227Z,100966.05
2019-06-10T21:48:22.838Z,100963.80
2019-06-10T21:50:55.962Z,100959.83
2019-06-10T21:53:30.941Z,100966.31
2019-06-10T21:56:03.095Z,100962.94
2019-06-10T21:58:36.688Z,100969.39
2019-06-10T22:01:13.179Z,100965.47
2019-06-10T22:03:45.538Z,100969.36
2019-06-10T22:06:16.761Z,100967.61
2019-06-10T22:08:50.005Z,100967.27
2019-06-10T22:11:23.437Z,100964.51
2019-06-10T22:13:56.377Z,100957.81
2019-06-10T22:16:28.669Z,100959.45
2019-06-10T22:19:03.323Z,100960.27
2019-06-10T22:21:34.700Z,100953.50
2019-06-10T22:24:06.885Z,100957.20
2019-06-10T22:26:39.078Z,100961.90
2019-06-10T22:29:12.640Z,100964.62
2019-06-10T22:31:47.136Z,100964.34
2019-06-10T22:34:19.257Z,100958.16
2019-06-10T22:36:53.802Z,100954.98
2019-06-10T22:39:25.184Z,100953.80
2019-06-10T22:41:57.337Z,100952.98
2019-06-10T22:44:29.464Z,100959.66
2019-06-10T22:47:02.872Z,100962.45
2019-06-10T22:49:35.188Z,100958.16
2019-06-10T22:52:07.330Z,100965.16
2019-06-10T22:54:39.427Z,100961.23
2019-06-10T22:57:12.975Z,100957.85
2019-06-10T22:59:45.105Z,100958.02
2019-06-10T23:02:17.233Z,100964.73
2019-06-10T23:04:49.298Z,100960.87
2019-06-10T23:07:23.056Z,100958.55
2019-06-10T23:09:56.340Z,100955.97
2019-06-10T23:12:28.978Z,100957.95
2019-06-10T23:15:02.879Z,100962.09
2019-06-10T23:17:36.336Z,100961.14
2019-06-10T23:20:08.934Z,100957.97
2019-06-10T23:22:41.144Z,100953.38
2019-06-10T23:25:13.565Z,100953.09
2019-06-10T23:27:45.675Z,100957.30
2019-06-10T23:30:17.895Z,100955.57
2019-06-10T23:32:50.019Z,100954.42
2019-06-10T23:35:23.087Z,100948.83
2019-06-10T23:37:57.239Z,100948.63
2019-06-10T23:40:29.333Z,100953.66
2019-06-10T23:43:03.699Z,100953.94
2019-06-10T23:45:35.234Z,100951.23
2019-06-10T23:48:07.366Z,100946.84
2019-06-10T23:50:39.528Z,100944.86
2019-06-10T23:53:13.210Z,100935.14
2019-06-10T23:55:45.544Z,100934.88
2019-06-10T23:58:17.659Z,100929.88
